Time;durP1;ratioP1;P1;durP2;ratioP2;P2;SDS_P1;SDS_P2;PMS_P1;PMS_P2;Temp;Humidity;BMP_temperature;BMP_pressure;BME280_temperature;BME280_humidity;BME280_pressure;Samples;Min_cycle;Max_cycle;Signal;HPM_P1;HPM_P2
2023/07/16 00:01:25;;;;;;;7.87;7.07;;;;;22.00;96549.00;;;;5035925;28;20237;-89
2023/07/16 00:04:14;;;;;;;8.23;7.37;;;;;21.80;96551.00;;;;4981799;28;1212357;-88
2023/07/16 00:07:03;;;;;;;8.83;6.97;;;;;22.00;96559.00;;;;5029418;28;20715;-87
2023/07/16 00:09:53;;;;;;;10.93;7.23;;;;;22.10;96542.00;;;;5028487;28;20216;-89
2023/07/16 00:12:43;;;;;;;7.17;6.47;;;;;22.20;96540.00;;;;5024779;28;20579;-89
2023/07/16 00:15:32;;;;;;;9.27;7.53;;;;;22.10;96540.00;;;;5020293;28;20613;-88
2023/07/16 00:18:22;;;;;;;6.80;6.13;;;;;22.10;96543.00;;;;5029686;28;20220;-88
2023/07/16 00:21:11;;;;;;;8.23;6.67;;;;;22.20;96548.00;;;;5024570;28;20226;-88
2023/07/16 00:24:01;;;;;;;9.37;7.30;;;;;22.10;96550.00;;;;5027008;28;20228;-88
2023/07/16 00:26:50;;;;;;;8.60;6.33;;;;;21.80;96547.00;;;;5026408;28;20201;-88
2023/07/16 00:29:40;;;;;;;9.67;7.27;;;;;22.00;96547.00;;;;5024340;28;20232;-87
2023/07/16 00:32:29;;;;;;;8.10;7.30;;;;;21.90;96542.00;;;;5032592;28;20239;-86
2023/07/16 00:35:19;;;;;;;8.53;6.23;;;;;21.80;96546.00;;;;5018868;28;20636;-89
2023/07/16 00:38:08;;;;;;;9.80;7.97;;;;;21.80;96549.00;;;;5029266;28;20209;-87
2023/07/16 00:40:57;;;;;;;10.97;7.97;;;;;21.90;96547.00;;;;5032681;28;20221;-88
2023/07/16 00:43:46;;;;;;;9.70;6.63;;;;;21.60;96549.00;;;;5023332;28;20217;-86
2023/07/16 00:46:36;;;;;;;8.23;7.33;;;;;21.30;96545.00;;;;5021075;28;20232;-88
2023/07/16 00:49:26;;;;;;;10.80;6.67;;;;;20.90;96542.00;;;;5025056;28;20208;-89
2023/07/16 00:52:19;;;;;;;8.30;7.10;;;;;21.20;96540.00;;;;5029423;28;20221;-90
2023/07/16 00:55:09;;;;;;;8.57;7.67;;;;;21.20;96537.00;;;;5016066;28;20669;-86
2023/07/16 00:58:01;;;;;;;8.30;6.80;;;;;21.10;96534.00;;;;5025405;28;20208;-87
2023/07/16 01:00:50;;;;;;;11.53;8.80;;;;;21.40;96533.00;;;;5019401;28;20236;-88
2023/07/16 01:03:41;;;;;;;8.07;7.37;;;;;21.60;96532.00;;;;5024173;28;20212;-87
2023/07/16 01:06:35;;;;;;;9.00;7.47;;;;;21.40;96531.00;;;;5036709;28;20238;-88
2023/07/16 01:09:25;;;;;;;8.37;7.53;;;;;21.00;96523.00;;;;5037329;28;20551;-89
2023/07/16 01:12:15;;;;;;;7.60;6.90;;;;;21.10;96522.00;;;;5035082;28;20209;-87
2023/07/16 01:15:04;;;;;;;9.53;7.50;;;;;21.30;96519.00;;;;5036067;28;20210;-89
2023/07/16 01:17:54;;;;;;;9.07;8.17;;;;;21.40;96522.00;;;;5034388;28;20324;-87
2023/07/16 01:20:44;;;;;;;9.00;8.10;;;;;21.50;96520.00;;;;5035827;28;20221;-87
2023/07/16 01:23:59;;;;;;;10.27;6.93;;;;;21.50;96510.00;;;;5040795;28;20205;-88
2023/07/16 01:27:01;;;;;;;8.60;7.77;;;;;20.80;96507.00;;;;5030148;28;20213;-88
2023/07/16 01:29:53;;;;;;;10.20;7.87;;;;;20.60;96502.00;;;;5034607;28;20220;-88
2023/07/16 01:32:43;;;;;;;9.17;7.80;;;;;20.80;96497.00;;;;5038193;28;20201;-87
2023/07/16 01:35:32;;;;;;;10.27;8.40;;;;;21.10;96497.00;;;;5044037;28;20210;-89
2023/07/16 01:38:23;;;;;;;11.37;8.23;;;;;21.30;96505.00;;;;5031624;28;20232;-86
2023/07/16 01:41:12;;;;;;;8.87;7.80;;;;;21.30;96498.00;;;;5028434;28;20287;-87
2023/07/16 01:44:01;;;;;;;13.80;7.80;;;;;20.90;96497.00;;;;5030304;28;20213;-87
2023/07/16 01:47:06;;;;;;;11.77;7.03;;;;;20.90;96493.00;;;;5033348;28;20210;-87
2023/07/16 01:49:55;;;;;;;10.90;7.87;;;;;20.90;96489.00;;;;5029830;28;20586;-87
2023/07/16 01:52:44;;;;;;;12.27;8.40;;;;;20.90;96488.00;;;;5030983;28;20213;-87
2023/07/16 01:55:33;;;;;;;8.57;7.77;;;;;20.90;96487.00;;;;5033808;28;20251;-87
2023/07/16 01:58:22;;;;;;;9.53;7.43;;;;;21.10;96480.00;;;;5035892;28;20206;-89
2023/07/16 02:01:11;;;;;;;9.47;8.07;;;;;20.80;96488.00;;;;5032523;28;20221;-87
2023/07/16 02:04:02;;;;;;;9.77;8.73;;;;;20.40;96491.00;;;;5037284;28;20213;-87
2023/07/16 02:06:51;;;;;;;10.83;7.87;;;;;20.20;96489.00;;;;5037780;28;20197;-89
2023/07/16 02:09:40;;;;;;;10.50;8.80;;;;;20.10;96491.00;;;;5036951;28;20237;-89
2023/07/16 02:12:29;;;;;;;11.73;10.13;;;;;20.30;96492.00;;;;5036169;28;20263;-87
2023/07/16 02:15:18;;;;;;;11.47;9.00;;;;;20.40;96497.00;;;;5035362;28;20688;-87
2023/07/16 02:18:08;;;;;;;10.97;9.23;;;;;20.60;96500.00;;;;5033676;28;20209;-87
2023/07/16 02:20:58;;;;;;;13.93;8.97;;;;;20.80;96508.00;;;;5031591;28;20231;-87
2023/07/16 02:23:47;;;;;;;9.60;7.40;;;;;20.60;96491.00;;;;5032639;28;20201;-89
2023/07/16 02:26:36;;;;;;;9.40;8.40;;;;;20.70;96495.00;;;;5036286;28;20589;-88
2023/07/16 02:29:25;;;;;;;9.63;8.70;;;;;20.40;96491.00;;;;5034552;28;20596;-87
2023/07/16 02:32:15;;;;;;;9.57;7.23;;;;;20.70;96491.00;;;;5032504;28;20208;-87
2023/07/16 02:35:04;;;;;;;11.10;7.93;;;;;20.80;96487.00;;;;5037155;28;20201;-89
2023/07/16 02:37:55;;;;;;;9.73;8.10;;;;;20.60;96488.00;;;;5038568;28;20210;-87
2023/07/16 02:40:45;;;;;;;9.63;7.83;;;;;20.50;96489.00;;;;5035501;28;20229;-87
2023/07/16 02:43:34;;;;;;;8.43;7.10;;;;;20.60;96494.00;;;;5036332;28;20205;-87
2023/07/16 02:46:23;;;;;;;9.73;8.27;;;;;20.40;96493.00;;;;5031125;28;20202;-87
2023/07/16 02:49:12;;;;;;;9.33;8.27;;;;;20.30;96488.00;;;;5032735;28;20208;-87
2023/07/16 02:52:01;;;;;;;12.17;7.00;;;;;20.20;96486.00;;;;5034617;28;21305;-87
2023/07/16 02:54:52;;;;;;;9.17;8.03;;;;;20.10;96488.00;;;;5032894;28;20252;-88
2023/07/16 02:57:41;;;;;;;9.37;7.63;;;;;20.00;96492.00;;;;5034430;28;20208;-90
2023/07/16 03:00:30;;;;;;;8.23;6.87;;;;;20.20;96490.00;;;;5034218;28;20231;-88
2023/07/16 03:03:19;;;;;;;8.57;7.40;;;;;20.30;96490.00;;;;5032245;28;20617;-87
2023/07/16 03:06:09;;;;;;;11.33;7.60;;;;;20.20;96495.00;;;;5032598;28;20236;-89
2023/07/16 03:08:58;;;;;;;14.00;8.53;;;;;20.00;96502.00;;;;5035700;28;20197;-87
2023/07/16 03:11:48;;;;;;;9.43;7.70;;;;;19.80;96496.00;;;;5034519;28;20660;-86
2023/07/16 03:14:37;;;;;;;11.43;7.70;;;;;19.70;96494.00;;;;5039942;28;20208;-88
2023/07/16 03:17:26;;;;;;;9.47;7.93;;;;;20.00;96499.00;;;;5032631;28;20209;-87
2023/07/16 03:20:16;;;;;;;9.90;8.20;;;;;20.20;96487.00;;;;5031843;28;20229;-88
2023/07/16 03:23:05;;;;;;;9.47;8.17;;;;;20.20;96490.00;;;;5037528;28;20209;-86
2023/07/16 03:25:54;;;;;;;7.80;7.10;;;;;20.10;96497.00;;;;5035617;28;20204;-87
2023/07/16 03:28:44;;;;;;;10.80;7.47;;;;;20.00;96500.00;;;;5036395;28;20217;-89
2023/07/16 03:31:34;;;;;;;10.73;7.07;;;;;20.00;96496.00;;;;5033446;28;20216;-88
2023/07/16 03:34:23;;;;;;;8.70;7.03;;;;;19.80;96491.00;;;;5030454;28;20229;-87
2023/07/16 03:37:12;;;;;;;9.07;8.00;;;;;20.00;96497.00;;;;5028468;28;20201;-89
2023/07/16 03:40:14;;;;;;;10.70;8.33;;;;;20.10;96504.00;;;;5035634;28;20239;-88
2023/07/16 03:43:03;;;;;;;7.97;7.27;;;;;20.00;96503.00;;;;5038351;28;20235;-87
2023/07/16 03:45:54;;;;;;;8.43;7.63;;;;;19.80;96506.00;;;;5034742;28;20205;-87
2023/07/16 03:48:43;;;;;;;9.90;8.23;;;;;19.80;96508.00;;;;5034580;28;20204;-88
2023/07/16 03:51:32;;;;;;;9.93;7.90;;;;;19.60;96519.00;;;;5032017;28;20225;-89
2023/07/16 03:54:21;;;;;;;8.47;7.57;;;;;19.50;96511.00;;;;5034803;28;20209;-87
2023/07/16 03:57:10;;;;;;;11.33;7.90;;;;;19.30;96519.00;;;;5030379;28;20214;-86
2023/07/16 04:00:04;;;;;;;12.27;9.00;;;;;19.40;96523.00;;;;5030299;28;20236;-88
2023/07/16 04:02:55;;;;;;;12.00;7.73;;;;;19.60;96525.00;;;;5030757;28;20247;-87
2023/07/16 04:05:44;;;;;;;9.40;7.97;;;;;19.90;96534.00;;;;5030250;28;20209;-87
2023/07/16 04:08:33;;;;;;;11.00;8.63;;;;;19.90;96528.00;;;;5030694;28;20205;-87
2023/07/16 04:11:22;;;;;;;10.70;7.07;;;;;19.90;96540.00;;;;5028124;28;20667;-87
2023/07/16 04:14:11;;;;;;;10.07;8.00;;;;;19.60;96537.00;;;;5025539;28;20589;-88
2023/07/16 04:17:00;;;;;;;11.67;8.17;;;;;19.50;96550.00;;;;5030517;28;20206;-87
2023/07/16 04:19:51;;;;;;;10.10;8.23;;;;;19.50;96552.00;;;;5030756;28;20221;-87
2023/07/16 04:22:41;;;;;;;11.23;7.97;;;;;20.00;96557.00;;;;5034217;28;20254;-89
2023/07/16 04:25:30;;;;;;;7.77;7.00;;;;;19.70;96555.00;;;;5031029;28;20228;-87
2023/07/16 04:28:19;;;;;;;9.67;8.17;;;;;20.10;96569.00;;;;5030142;28;20699;-87
2023/07/16 04:31:08;;;;;;;10.13;7.10;;;;;20.20;96562.00;;;;5028954;28;20225;-87
2023/07/16 04:33:57;;;;;;;10.93;8.07;;;;;20.00;96565.00;;;;5034590;28;20224;-87
2023/07/16 04:36:48;;;;;;;10.03;7.43;;;;;20.40;96572.00;;;;5033494;28;20215;-87
2023/07/16 04:39:37;;;;;;;15.53;9.17;;;;;20.60;96576.00;;;;5034192;28;20211;-88
2023/07/16 04:42:26;;;;;;;10.67;8.00;;;;;20.30;96570.00;;;;5029660;28;20236;-87
2023/07/16 04:45:15;;;;;;;9.73;8.43;;;;;20.40;96568.00;;;;5027872;28;20327;-88
2023/07/16 04:48:05;;;;;;;11.87;9.50;;;;;20.30;96576.00;;;;5034052;28;20215;-87
2023/07/16 04:50:54;;;;;;;9.27;8.33;;;;;20.40;96582.00;;;;5032484;28;20296;-87
2023/07/16 04:53:44;;;;;;;13.10;9.03;;;;;20.30;96592.00;;;;5032814;28;20213;-89
2023/07/16 04:56:34;;;;;;;13.27;9.27;;;;;20.40;96592.00;;;;5029634;28;20205;-88
2023/07/16 04:59:23;;;;;;;10.57;8.00;;;;;20.60;96595.00;;;;5029368;28;20216;-86
2023/07/16 05:02:12;;;;;;;9.03;8.03;;;;;20.90;96605.00;;;;5022662;28;20231;-88
2023/07/16 05:05:01;;;;;;;10.47;8.63;;;;;20.90;96605.00;;;;5031951;28;20213;-87
2023/07/16 05:07:50;;;;;;;12.03;8.83;;;;;21.20;96613.00;;;;5031455;28;20200;-88
2023/07/16 05:10:41;;;;;;;11.80;8.43;;;;;21.40;96618.00;;;;5034924;28;20229;-89
2023/07/16 05:13:30;;;;;;;11.70;7.73;;;;;21.60;96624.00;;;;5036815;28;20197;-87
2023/07/16 05:16:19;;;;;;;8.37;7.57;;;;;21.70;96623.00;;;;5028174;28;20594;-87
2023/07/16 05:19:08;;;;;;;8.67;7.70;;;;;21.80;96630.00;;;;5026354;28;20228;-87
2023/07/16 05:21:57;;;;;;;7.80;7.10;;;;;22.00;96631.00;;;;5027086;28;20225;-87
2023/07/16 05:24:46;;;;;;;9.07;7.23;;;;;21.80;96627.00;;;;5029589;28;20209;-87
2023/07/16 05:27:37;;;;;;;8.83;6.90;;;;;21.80;96628.00;;;;5031041;28;20628;-90
2023/07/16 05:30:26;;;;;;;9.10;7.00;;;;;21.70;96623.00;;;;5033086;28;20217;-90
2023/07/16 05:33:15;;;;;;;8.00;6.67;;;;;21.80;96627.00;;;;5034506;28;20216;-87
2023/07/16 05:36:04;;;;;;;12.63;6.50;;;;;21.80;96630.00;;;;5034026;28;20676;-87
2023/07/16 05:38:54;;;;;;;16.03;7.40;;;;;22.10;96625.00;;;;5034508;28;20198;-87
2023/07/16 05:41:43;;;;;;;10.87;7.37;;;;;22.20;96637.00;;;;5033447;28;20734;-89
2023/07/16 05:44:34;;;;;;;10.20;7.13;;;;;22.30;96644.00;;;;5032253;28;20202;-86
2023/07/16 05:47:23;;;;;;;7.83;7.07;;;;;22.70;96650.00;;;;5030183;28;20197;-86
2023/07/16 05:50:12;;;;;;;9.37;7.30;;;;;23.10;96645.00;;;;5030562;28;20489;-88
2023/07/16 05:53:02;;;;;;;8.77;7.33;;;;;22.90;96641.00;;;;5031193;28;21411;-88
2023/07/16 05:55:51;;;;;;;12.40;7.00;;;;;23.00;96643.00;;;;5031090;28;20223;-89
2023/07/16 05:58:42;;;;;;;13.93;7.47;;;;;23.40;96659.00;;;;5031613;28;20609;-87
2023/07/16 06:01:32;;;;;;;11.07;7.67;;;;;23.40;96665.00;;;;5028240;28;20576;-87
2023/07/16 06:04:21;;;;;;;8.47;7.57;;;;;23.60;96661.00;;;;5030191;28;20224;-87
2023/07/16 06:07:10;;;;;;;7.63;6.83;;;;;23.70;96666.00;;;;5033542;28;20225;-87
2023/07/16 06:10:00;;;;;;;8.70;6.90;;;;;24.00;96669.00;;;;5031581;28;20700;-87
2023/07/16 06:12:49;;;;;;;9.07;8.13;;;;;24.30;96670.00;;;;5031386;28;20200;-89
2023/07/16 06:15:38;;;;;;;6.53;5.93;;;;;24.20;96681.00;;;;5031890;28;20204;-88
2023/07/16 06:18:29;;;;;;;8.60;6.30;;;;;24.90;96685.00;;;;5029583;28;20270;-87
2023/07/16 06:21:18;;;;;;;8.10;7.30;;;;;25.10;96687.00;;;;5030386;28;20221;-87
2023/07/16 06:24:07;;;;;;;9.30;6.83;;;;;25.50;96680.00;;;;5027973;28;20231;-87
2023/07/16 06:26:56;;;;;;;7.63;6.93;;;;;25.80;96693.00;;;;5033801;28;20197;-87
2023/07/16 06:29:45;;;;;;;7.53;6.83;;;;;25.90;96701.00;;;;5037674;28;20771;-88
2023/07/16 06:32:34;;;;;;;9.33;7.17;;;;;25.30;96688.00;;;;5031080;28;20232;-86
2023/07/16 06:35:25;;;;;;;6.33;5.73;;;;;25.60;96699.00;;;;5029528;28;20202;-89
2023/07/16 06:38:15;;;;;;;7.20;6.50;;;;;26.10;96700.00;;;;5028944;28;20197;-86
2023/07/16 06:41:04;;;;;;;6.30;5.80;;;;;26.70;96699.00;;;;5028526;28;20221;-87
2023/07/16 06:43:53;;;;;;;7.33;6.63;;;;;26.80;96704.00;;;;5030282;28;20233;-87
2023/07/16 06:46:42;;;;;;;7.83;5.83;;;;;26.90;96703.00;;;;5031775;28;20220;-87
2023/07/16 06:49:32;;;;;;;9.60;6.07;;;;;26.80;96697.00;;;;5030168;28;20295;-87
2023/07/16 06:52:24;;;;;;;6.63;5.93;;;;;26.80;96701.00;;;;5031220;28;20197;-88
2023/07/16 06:55:13;;;;;;;11.77;6.57;;;;;27.50;96715.00;;;;5029438;28;20206;-89
2023/07/16 06:58:02;;;;;;;4.77;4.37;;;;;27.90;96702.00;;;;5036395;28;20692;-87
2023/07/16 07:00:52;;;;;;;6.40;5.43;;;;;28.30;96707.00;;;;5031186;28;20226;-88
2023/07/16 07:03:41;;;;;;;4.53;4.13;;;;;28.40;96705.00;;;;5030047;28;20223;-87
2023/07/16 07:06:30;;;;;;;4.03;3.50;;;;;29.00;96702.00;;;;5031657;28;20201;-86
2023/07/16 07:09:20;;;;;;;2.90;2.67;;;;;29.30;96701.00;;;;5029192;28;20619;-86
2023/07/16 07:12:10;;;;;;;3.20;2.90;;;;;29.60;96706.00;;;;5028785;28;20201;-89
2023/07/16 07:14:59;;;;;;;3.87;2.87;;;;;29.40;96702.00;;;;5029843;28;20201;-87
2023/07/16 07:17:48;;;;;;;2.70;2.50;;;;;29.70;96718.00;;;;5029948;28;20695;-87
2023/07/16 07:20:37;;;;;;;3.30;3.00;;;;;30.10;96730.00;;;;5027468;28;20723;-87
2023/07/16 07:23:27;;;;;;;4.07;3.10;;;;;29.80;96724.00;;;;5028289;28;20235;-87
2023/07/16 07:26:17;;;;;;;2.80;2.60;;;;;30.50;96733.00;;;;5031943;28;20253;-87
2023/07/16 07:29:06;;;;;;;3.80;3.37;;;;;30.70;96731.00;;;;5031794;28;20206;-86
2023/07/16 07:31:56;;;;;;;3.30;3.00;;;;;30.80;96741.00;;;;5029654;28;20209;-86
2023/07/16 07:34:45;;;;;;;2.47;2.23;;;;;30.70;96746.00;;;;5028648;28;20571;-87
2023/07/16 07:37:34;;;;;;;6.00;2.70;;;;;31.10;96743.00;;;;5027670;28;20228;-86
2023/07/16 07:40:23;;;;;;;3.93;3.37;;;;;31.30;96759.00;;;;5031930;28;20222;-86
2023/07/16 07:43:13;;;;;;;4.50;2.80;;;;;30.90;96757.00;;;;5026143;28;20241;-87
2023/07/16 07:46:02;;;;;;;4.27;2.70;;;;;31.30;96748.00;;;;5028906;28;20211;-87
2023/07/16 07:48:51;;;;;;;2.63;2.43;;;;;31.40;96764.00;;;;5029755;28;20211;-87
2023/07/16 07:51:40;;;;;;;3.20;2.90;;;;;31.70;96763.00;;;;5029059;28;20228;-86
2023/07/16 07:54:30;;;;;;;4.57;3.30;;;;;31.40;96766.00;;;;5029804;28;20203;-87
2023/07/16 07:57:20;;;;;;;3.42;3.13;;;;;31.70;96765.00;;;;5030126;28;20581;-85
2023/07/16 08:00:12;;;;;;;2.57;2.37;;;;;32.10;96768.00;;;;5028667;28;20574;-85
2023/07/16 08:03:01;;;;;;;3.80;3.40;;;;;32.20;96772.00;;;;5026248;28;20216;-86
2023/07/16 08:05:51;;;;;;;4.32;3.05;;;;;32.30;96786.00;;;;5027871;28;20212;-86
2023/07/16 08:08:40;;;;;;;2.80;2.60;;;;;31.80;96789.00;;;;5030266;28;20216;-88
2023/07/16 08:11:29;;;;;;;5.57;2.83;;;;;32.50;96789.00;;;;5025755;28;20216;-88
2023/07/16 08:14:18;;;;;;;3.13;2.90;;;;;32.70;96784.00;;;;5029354;28;20750;-89
2023/07/16 08:17:09;;;;;;;3.42;3.10;;;;;32.80;96793.00;;;;5031988;28;20209;-86
2023/07/16 08:19:58;;;;;;;6.68;3.47;;;;;33.00;96793.00;;;;5032510;28;20282;-86
2023/07/16 08:22:47;;;;;;;5.88;3.40;;;;;33.00;96800.00;;;;5035955;28;20208;-87
2023/07/16 08:25:36;;;;;;;3.13;2.67;;;;;33.10;96804.00;;;;5032012;28;20230;-87
2023/07/16 08:28:26;;;;;;;5.85;3.50;;;;;33.30;96801.00;;;;5027493;28;20208;-86
2023/07/16 08:31:15;;;;;;;3.55;3.25;;;;;33.00;96794.00;;;;5028087;28;20218;-90
2023/07/16 08:34:06;;;;;;;3.65;3.35;;;;;33.30;96812.00;;;;5030018;28;20206;-86
2023/07/16 08:36:55;;;;;;;3.08;2.88;;;;;33.50;96819.00;;;;5032216;28;20764;-87
2023/07/16 08:39:44;;;;;;;3.30;3.10;;;;;33.40;96813.00;;;;5029632;28;20230;-87
2023/07/16 08:42:33;;;;;;;4.25;3.17;;;;;33.60;96820.00;;;;5027699;28;20200;-87
2023/07/16 08:45:23;;;;;;;3.53;3.05;;;;;33.70;96826.00;;;;5026867;28;20209;-87
2023/07/16 08:48:13;;;;;;;3.67;3.35;;;;;33.80;96824.00;;;;5025111;28;20209;-89
2023/07/16 08:51:04;;;;;;;3.28;3.03;;;;;33.70;96819.00;;;;5029777;28;20251;-87
2023/07/16 08:53:53;;;;;;;3.25;2.83;;;;;34.00;96832.00;;;;5031452;28;20250;-86
2023/07/16 08:56:42;;;;;;;3.03;2.72;;;;;34.00;96839.00;;;;5031281;28;20200;-87
2023/07/16 08:59:31;;;;;;;3.60;2.92;;;;;34.20;96834.00;;;;5029028;28;20207;-86
2023/07/16 09:02:21;;;;;;;2.88;2.60;;;;;34.30;96846.00;;;;5026315;28;20206;-86
2023/07/16 09:05:11;;;;;;;7.63;2.90;;;;;34.40;96841.00;;;;5029681;28;20223;-87
2023/07/16 09:08:07;;;;;;;3.58;3.25;;;;;34.50;96845.00;;;;5034290;28;20206;-86
2023/07/16 09:10:57;;;;;;;5.25;2.67;;;;;34.50;96853.00;;;;5033780;28;20601;-87
2023/07/16 09:13:46;;;;;;;3.13;2.85;;;;;34.70;96854.00;;;;5031581;28;20209;-87
2023/07/16 09:16:36;;;;;;;2.58;2.38;;;;;34.90;96851.00;;;;5033374;28;20204;-87
2023/07/16 09:19:27;;;;;;;3.40;3.10;;;;;35.10;96850.00;;;;5032883;28;20223;-87
2023/07/16 09:22:19;;;;;;;4.82;3.28;;;;;35.50;96850.00;;;;5034193;28;20585;-87
2023/07/16 09:25:10;;;;;;;3.38;3.08;;;;;35.90;96844.00;;;;5033071;28;20225;-88
2023/07/16 09:28:02;;;;;;;6.03;2.95;;;;;35.90;96853.00;;;;5032695;28;20255;-87
2023/07/16 09:30:52;;;;;;;4.35;2.80;;;;;35.40;96859.00;;;;5032084;28;20842;-88
2023/07/16 09:33:41;;;;;;;3.58;3.00;;;;;34.90;96868.00;;;;5031301;28;20197;-86
2023/07/16 09:36:30;;;;;;;3.50;3.15;;;;;35.40;96855.00;;;;5030716;28;20198;-87
2023/07/16 09:39:20;;;;;;;4.68;3.45;;;;;35.40;96845.00;;;;5034136;28;20197;-87
2023/07/16 09:42:10;;;;;;;3.00;2.80;;;;;36.50;96844.00;;;;5033464;28;20205;-88
2023/07/16 09:45:00;;;;;;;4.90;3.17;;;;;36.60;96871.00;;;;5028864;28;20232;-87
2023/07/16 09:47:49;;;;;;;3.70;3.40;;;;;36.00;96844.00;;;;5020514;28;20331;-87
2023/07/16 09:50:40;;;;;;;3.78;3.00;;;;;36.00;96869.00;;;;5034363;28;20228;-87
2023/07/16 09:53:32;;;;;;;4.25;3.28;;;;;35.80;96880.00;;;;5032019;28;20287;-87
2023/07/16 09:56:22;;;;;;;5.53;3.78;;;;;35.80;96875.00;;;;5031727;28;20595;-87
2023/07/16 09:59:15;;;;;;;6.53;2.80;;;;;35.20;96874.00;;;;5032589;28;20609;-85
2023/07/16 10:02:08;;;;;;;3.85;2.90;;;;;35.70;96857.00;;;;5044585;28;20278;-85
2023/07/16 10:04:57;;;;;;;6.43;2.80;;;;;35.70;96867.00;;;;5043195;28;20621;-84
2023/07/16 10:07:52;;;;;;;3.13;2.83;;;;;36.50;96834.00;;;;5044035;28;20201;-85
2023/07/16 10:10:43;;;;;;;3.42;2.85;;;;;36.20;96876.00;;;;5042496;28;20217;-86
2023/07/16 10:13:35;;;;;;;2.63;2.42;;;;;35.70;96881.00;;;;5045362;28;20231;-86
2023/07/16 10:16:27;;;;;;;2.85;2.58;;;;;35.40;96870.00;;;;5042014;28;20201;-86
2023/07/16 10:19:24;;;;;;;3.45;3.15;;;;;35.40;96868.00;;;;5042167;28;20208;-84
2023/07/16 10:22:13;;;;;;;3.85;3.55;;;;;36.10;96846.00;;;;5043073;28;20212;-84
2023/07/16 10:25:03;;;;;;;3.70;3.00;;;;;36.90;96849.00;;;;5042260;28;20230;-85
2023/07/16 10:27:53;;;;;;;3.53;3.22;;;;;37.10;96842.00;;;;5040319;28;20270;-85
2023/07/16 10:30:42;;;;;;;2.70;2.50;;;;;36.80;96839.00;;;;5036055;28;20220;-85
2023/07/16 10:33:33;;;;;;;3.78;2.85;;;;;36.90;96843.00;;;;5036286;28;20212;-86
2023/07/16 10:36:22;;;;;;;3.22;2.90;;;;;36.80;96836.00;;;;5057302;23;20248;-73
2023/07/16 10:39:11;;;;;;;3.10;2.90;;;;;37.00;96836.00;;;;5032885;28;20201;-73
2023/07/16 10:42:00;;;;;;;3.53;3.22;;;;;36.60;96829.00;;;;5038682;28;20197;-73
2023/07/16 10:44:53;;;;;;;3.20;2.72;;;;;37.70;96833.00;;;;5020616;28;20226;-73
2023/07/16 10:47:53;;;;;;;5.38;3.13;;;;;37.90;96819.00;;;;5013273;28;20208;-73
2023/07/16 10:50:43;;;;;;;4.00;3.20;;;;;38.40;96834.00;;;;5008519;28;20679;-73
2023/07/16 10:53:32;;;;;;;3.13;2.92;;;;;37.40;96820.00;;;;5013941;28;20619;-73
2023/07/16 10:56:22;;;;;;;3.58;2.30;;;;;37.90;96818.00;;;;5005196;28;20202;-73
2023/07/16 10:59:12;;;;;;;3.22;2.67;;;;;38.40;96824.00;;;;5017649;28;20198;-74
2023/07/16 11:02:01;;;;;;;3.00;2.65;;;;;38.90;96808.00;;;;5009588;28;20256;-74
2023/07/16 11:04:53;;;;;;;3.03;2.70;;;;;39.10;96819.00;;;;5013934;28;20318;-74
2023/07/16 11:07:46;;;;;;;4.50;2.83;;;;;39.90;96824.00;;;;5001685;28;20263;-74
2023/07/16 11:10:38;;;;;;;3.17;2.78;;;;;39.00;96816.00;;;;5007367;28;20265;-74
2023/07/16 11:13:28;;;;;;;3.28;2.97;;;;;38.30;96860.00;;;;5014247;28;20201;-74
2023/07/16 11:16:17;;;;;;;3.47;3.17;;;;;37.60;96868.00;;;;5019214;28;20204;-74
2023/07/16 11:19:07;;;;;;;3.13;2.65;;;;;37.20;96872.00;;;;5019682;28;20605;-74
2023/07/16 11:21:56;;;;;;;3.33;3.00;;;;;36.70;96861.00;;;;5019458;28;20203;-74
2023/07/16 11:24:48;;;;;;;3.47;2.78;;;;;36.50;96863.00;;;;5021351;28;20606;-73
2023/07/16 11:27:37;;;;;;;3.72;2.75;;;;;36.40;96860.00;;;;5018885;28;20194;-74
2023/07/16 11:30:27;;;;;;;3.45;3.17;;;;;35.80;96860.00;;;;5019266;28;20218;-73
2023/07/16 11:33:16;;;;;;;3.80;3.40;;;;;35.80;96853.00;;;;5007680;28;20690;-73
2023/07/16 11:36:06;;;;;;;4.03;3.63;;;;;36.40;96790.00;;;;5005841;28;20302;-74
2023/07/16 11:38:55;;;;;;;3.78;3.47;;;;;37.70;96799.00;;;;5010266;28;20209;-75
2023/07/16 11:41:56;;;;;;;3.42;3.13;;;;;38.50;96798.00;;;;5009330;28;20205;-71
2023/07/16 11:44:50;;;;;;;2.88;2.67;;;;;39.00;96800.00;;;;5005912;28;20225;-73
2023/07/16 11:47:39;;;;;;;3.83;3.30;;;;;39.80;96798.00;;;;5009606;28;20205;-73
2023/07/16 11:50:30;;;;;;;6.20;2.72;;;;;39.00;96846.00;;;;5008878;28;20683;-75
2023/07/16 11:53:19;;;;;;;3.47;3.17;;;;;40.00;96821.00;;;;5009294;28;20598;-73
2023/07/16 11:56:09;;;;;;;4.30;2.92;;;36.40;63.90;39.50;96811.00;;;;5009235;28;20193;-75
2023/07/16 11:58:59;;;;;;;4.63;3.45;;;36.40;64.10;40.30;96807.00;;;;5005314;28;20275;-74
2023/07/16 12:01:49;;;;;;;3.70;3.38;;;36.70;66.00;41.20;96809.00;;;;5007896;28;20284;-74
2023/07/16 12:04:39;;;;;;;3.42;3.13;;;37.10;66.70;41.40;96818.00;;;;5033515;23;20259;-88
2023/07/16 12:07:35;;;;;;;4.82;3.25;;;37.40;64.70;41.40;96823.00;;;;5040042;28;20703;-88
2023/07/16 12:10:24;;;;;;;4.45;3.10;;;37.70;64.50;42.00;96818.00;;;;5040135;28;20243;-89
2023/07/16 12:13:13;;;;;;;5.90;3.72;;;38.00;63.10;42.00;96819.00;;;;5038662;28;20263;-87
2023/07/16 12:16:04;;;;;;;3.78;3.47;;;38.20;61.80;42.30;96826.00;;;;5042024;28;20247;-88
2023/07/16 12:18:52;;;;;;;3.67;3.33;;;38.40;63.50;41.90;96882.00;;;;5043351;28;20246;-90
2023/07/16 12:21:41;;;;;;;3.90;3.60;;;38.50;63.20;40.50;96871.00;;;;5043985;28;20200;-90
2023/07/16 12:24:30;;;;;;;4.88;4.35;;;38.10;61.70;40.90;96817.00;;;;5040799;28;20201;-90
2023/07/16 12:27:20;;;;;;;5.05;3.90;;;38.00;59.40;37.70;96818.00;;;;5042860;28;20224;-91
2023/07/16 12:30:09;;;;;;;5.03;3.53;;;37.30;61.90;39.50;96809.00;;;;5044723;28;20474;-90
2023/07/16 12:32:59;;;;;;;4.25;3.85;;;37.00;63.10;39.40;96822.00;;;;5044326;28;20205;-91
2023/07/16 12:35:48;;;;;;;5.63;3.83;;;37.00;64.80;40.10;96813.00;;;;5037066;28;20317;-90
2023/07/16 12:38:37;;;;;;;5.60;4.25;;;37.10;61.20;40.70;96816.00;;;;5041562;28;20196;-89
2023/07/16 12:41:26;;;;;;;6.93;3.78;;;37.00;66.00;41.90;96819.00;;;;5043467;28;20258;-90
2023/07/16 12:44:15;;;;;;;3.95;3.65;;;37.40;65.30;40.80;96829.00;;;;5042962;28;20201;-92
2023/07/16 12:47:05;;;;;;;5.05;4.10;;;37.80;65.00;39.90;96826.00;;;;5040364;28;20238;-90
2023/07/16 12:49:56;;;;;;;5.00;3.72;;;37.60;64.40;41.00;96865.00;;;;5044383;28;20204;-89
2023/07/16 12:52:44;;;;;;;4.20;3.78;;;37.70;66.20;40.50;96874.00;;;;5039766;28;20204;-90
2023/07/16 12:55:33;;;;;;;6.22;4.15;;;37.60;64.90;39.60;96852.00;;;;5044024;28;20656;-92
2023/07/16 12:58:23;;;;;;;4.28;3.97;;;37.60;64.20;37.40;96883.00;;;;5046394;28;20235;-91
2023/07/16 13:01:12;;;;;;;4.90;4.50;;;36.80;61.60;37.80;96896.00;;;;5042668;28;20261;-90
2023/07/16 13:04:01;;;;;;;6.45;4.28;;;36.10;64.90;37.70;96896.00;;;;5048656;28;20255;-90
2023/07/16 13:06:51;;;;;;;5.63;4.57;;;35.60;66.50;37.90;96891.00;;;;5047515;28;20664;-91
2023/07/16 13:09:40;;;;;;;4.78;4.38;;;35.40;67.90;38.10;96876.00;;;;5047761;28;20579;-93
2023/07/16 13:12:29;;;;;;;7.95;4.35;;;35.30;69.50;38.90;96863.00;;;;5048427;28;20431;-91
2023/07/16 13:15:18;;;;;;;6.72;4.45;;;35.40;70.60;40.40;96815.00;;;;5045315;28;20672;-91
2023/07/16 13:18:07;;;;;;;4.78;4.38;;;35.90;71.10;41.60;96822.00;;;;5048396;28;20207;-92
2023/07/16 13:20:55;;;;;;;4.80;4.30;;;36.60;71.80;40.70;96860.00;;;;5045620;28;20193;-91
2023/07/16 13:23:46;;;;;;;4.15;3.85;;;36.90;66.30;40.80;96823.00;;;;5048071;28;20246;-92
2023/07/16 13:26:35;;;;;;;5.22;4.35;;;37.20;65.70;41.80;96834.00;;;;5048283;28;20220;-90
2023/07/16 13:29:24;;;;;;;4.78;4.38;;;37.60;66.70;40.70;96853.00;;;;5048477;28;20200;-91
2023/07/16 13:32:13;;;;;;;4.57;4.22;;;37.70;65.00;39.10;96888.00;;;;5048869;28;20227;-92
2023/07/16 13:35:02;;;;;;;4.80;4.40;;;37.30;63.80;37.90;96830.00;;;;5049279;28;20196;-91
2023/07/16 13:37:51;;;;;;;5.20;4.72;;;36.70;65.20;36.60;96837.00;;;;5048065;28;20204;-90
2023/07/16 13:40:42;;;;;;;5.75;4.78;;;36.10;63.70;37.00;96824.00;;;;5048915;28;20261;-90
2023/07/16 13:43:31;;;;;;;4.72;4.40;;;35.50;65.70;38.50;96878.00;;;;5044660;28;20285;-92
2023/07/16 13:46:20;;;;;;;5.10;4.45;;;35.50;68.60;38.80;96856.00;;;;5041526;28;20229;-92
2023/07/16 13:49:09;;;;;;;4.78;4.07;;;35.50;70.50;41.10;96849.00;;;;5047628;28;20201;-92
2023/07/16 13:51:58;;;;;;;4.10;3.70;;;36.10;70.10;41.60;96815.00;;;;5052168;28;20208;-92